createdAt,value
2022-11-03T00:01:56.766Z,98663.63
2022-11-03T00:04:23.993Z,98675.94
2022-11-03T00:06:54.558Z,98679.28
2022-11-03T00:09:23.633Z,98680.03
2022-11-03T00:11:51.923Z,98677.28
2022-11-03T00:14:18.987Z,98674.75
2022-11-03T00:16:45.793Z,98673.56
2022-11-03T00:19:13.650Z,98668.31
2022-11-03T00:21:40.299Z,98669.16
2022-11-03T00:24:07.388Z,98666.59
2022-11-03T00:26:36.732Z,98659.84
2022-11-03T00:29:12.801Z,98665.06
2022-11-03T00:31:43.638Z,98652.13
2022-11-03T00:34:11.284Z,98651.72
2022-11-03T00:36:41.635Z,98645.88
2022-11-03T00:39:08.824Z,98643.03
2022-11-03T00:41:36.427Z,98642.72
2022-11-03T00:44:03.609Z,98645.69
2022-11-03T00:46:30.462Z,98642.81
2022-11-03T00:48:57.065Z,98651.38
2022-11-03T00:51:27.361Z,98649.50
2022-11-03T00:53:56.906Z,98646.22
2022-11-03T00:56:36.989Z,98647.91
2022-11-03T00:59:05.566Z,98640.00
2022-11-03T01:01:46.557Z,98644.28
2022-11-03T01:04:34.824Z,98642.47
2022-11-03T01:07:02.830Z,98643.44
2022-11-03T01:09:33.095Z,98640.78
2022-11-03T01:12:08.703Z,98636.63
2022-11-03T01:14:43.873Z,98637.50
2022-11-03T01:17:25.843Z,98628.59
2022-11-03T01:19:53.601Z,98626.88
2022-11-03T01:22:22.266Z,98625.25
2022-11-03T01:24:48.876Z,98630.56
2022-11-03T01:27:19.253Z,98635.19
2022-11-03T01:29:46.317Z,98629.84
2022-11-03T01:32:12.793Z,98625.47
2022-11-03T01:34:39.769Z,98629.97
2022-11-03T01:37:06.695Z,98625.16
2022-11-03T01:39:33.657Z,98622.06
2022-11-03T01:42:00.461Z,98618.47
2022-11-03T01:44:48.243Z,98610.41
2022-11-03T01:47:32.958Z,98611.13
2022-11-03T01:50:14.416Z,98600.16
2022-11-03T01:52:46.708Z,98603.97
2022-11-03T01:55:24.488Z,98607.09
2022-11-03T01:58:02.491Z,98600.88
2022-11-03T02:00:28.989Z,98595.25
2022-11-03T02:02:55.506Z,98587.91
2022-11-03T02:05:26.567Z,98581.31
2022-11-03T02:08:02.183Z,98578.34
2022-11-03T02:10:28.673Z,98582.03
2022-11-03T02:12:55.374Z,98579.63
2022-11-03T02:15:23.857Z,98575.34
2022-11-03T02:17:53.993Z,98573.78
2022-11-03T02:20:32.898Z,98568.47
2022-11-03T02:23:14.350Z,98562.03
2022-11-03T02:25:57.910Z,98553.16
2022-11-03T02:28:32.310Z,98556.38
2022-11-03T02:31:23.612Z,98544.22
2022-11-03T02:34:08.213Z,98545.38
2022-11-03T02:36:51.237Z,98537.59
2022-11-03T02:39:38.609Z,98524.19
2022-11-03T02:42:07.545Z,98525.13
2022-11-03T02:44:36.819Z,98525.13
2022-11-03T02:47:11.169Z,98514.25
2022-11-03T02:49:53.300Z,98515.78
2022-11-03T02:52:47.247Z,98507.31
2022-11-03T02:55:41.130Z,98500.19
2022-11-03T02:58:59.261Z,98494.75
2022-11-03T03:01:46.994Z,98484.22
2022-11-03T03:04:39.484Z,98480.75
2022-11-03T03:07:14.064Z,98477.59
2022-11-03T03:09:51.349Z,98474.34
2022-11-03T03:12:21.846Z,98478.59
2022-11-03T03:14:50.917Z,98481.97
2022-11-03T03:17:33.980Z,98477.59
2022-11-03T03:20:31.260Z,98473.50
2022-11-03T03:23:14.039Z,98467.84
2022-11-03T03:25:58.073Z,98468.44
2022-11-03T03:28:43.189Z,98466.00
2022-11-03T03:31:14.517Z,98463.50
2022-11-03T03:33:47.542Z,98458.81
2022-11-03T03:36:18.929Z,98451.44
2022-11-03T03:39:02.548Z,98457.28
2022-11-03T03:41:32.622Z,98442.41
2022-11-03T03:44:05.574Z,98445.03
2022-11-03T03:46:40.956Z,98439.38
2022-11-03T03:49:08.337Z,98436.59
2022-11-03T03:51:36.638Z,98433.53
2022-11-03T03:54:03.357Z,98432.44
2022-11-03T03:56:38.995Z,98430.91
2022-11-03T03:59:05.472Z,98426.09
2022-11-03T04:01:32.020Z,98421.44
2022-11-03T04:03:58.528Z,98415.94
2022-11-03T04:06:24.984Z,98413.66
2022-11-03T04:08:51.409Z,98412.50
2022-11-03T04:11:36.373Z,98407.59
2022-11-03T04:14:21.580Z,98399.25
2022-11-03T04:17:07.012Z,98402.56
2022-11-03T04:19:52.086Z,98393.75
2022-11-03T04:22:18.634Z,98404.56
2022-11-03T04:24:51.561Z,98405.25
2022-11-03T04:27:35.025Z,98404.28
2022-11-03T04:30:22.044Z,98399.06
2022-11-03T04:32:51.465Z,98396.34
2022-11-03T04:35:25.864Z,98398.34
2022-11-03T04:38:09.704Z,98393.09
2022-11-03T04:40:36.282Z,98385.25
2022-11-03T04:43:10.965Z,98380.78
2022-11-03T04:45:38.225Z,98380.06
2022-11-03T04:48:14.636Z,98380.50
2022-11-03T04:50:46.594Z,98382.41
2022-11-03T04:53:16.869Z,98378.81
2022-11-03T04:55:45.909Z,98378.69
2022-11-03T04:58:43.047Z,98378.22
2022-11-03T05:01:17.277Z,98375.28
2022-11-03T05:03:54.142Z,98371.69
2022-11-03T05:06:29.542Z,98373.88
2022-11-03T05:09:01.943Z,98370.25
2022-11-03T05:11:41.328Z,98369.16
2022-11-03T05:14:19.969Z,98368.38
2022-11-03T05:16:48.677Z,98366.97
2022-11-03T05:19:28.813Z,98366.00
2022-11-03T05:21:58.996Z,98364.50
2022-11-03T05:24:26.414Z,98358.72
2022-11-03T05:26:57.721Z,98349.72
2022-11-03T05:29:35.451Z,98352.88
2022-11-03T05:32:02.050Z,98348.84
2022-11-03T05:34:41.185Z,98338.88
2022-11-03T05:37:27.072Z,98337.41
2022-11-03T05:39:59.410Z,98333.41
2022-11-03T05:42:37.766Z,98328.56
2022-11-03T05:45:26.677Z,98330.69
2022-11-03T05:47:56.997Z,98328.56
2022-11-03T05:50:27.233Z,98329.66
2022-11-03T05:53:06.436Z,98319.84
2022-11-03T05:55:37.280Z,98335.28
2022-11-03T05:58:27.492Z,98327.59
2022-11-03T06:00:55.186Z,98321.69
2022-11-03T06:03:27.772Z,98313.69
2022-11-03T06:05:56.907Z,98312.31
2022-11-03T06:08:30.573Z,98309.69
2022-11-03T06:10:59.944Z,98311.09
2022-11-03T06:13:38.245Z,98298.88
2022-11-03T06:16:36.125Z,98303.56
2022-11-03T06:19:18.809Z,98295.44
2022-11-03T06:21:46.760Z,98290.84
2022-11-03T06:24:16.817Z,98290.06
2022-11-03T06:26:46.628Z,98294.53
2022-11-03T06:29:19.845Z,98299.81
2022-11-03T06:31:53.018Z,98288.38
2022-11-03T06:34:25.347Z,98284.09
2022-11-03T06:36:51.834Z,98288.28
2022-11-03T06:39:24.241Z,98291.59
2022-11-03T06:41:51.590Z,98288.38
2022-11-03T06:44:29.027Z,98284.56
2022-11-03T06:47:01.620Z,98283.16
2022-11-03T06:49:34.569Z,98276.00
2022-11-03T06:52:31.420Z,98269.69
2022-11-03T06:55:18.770Z,98265.66
2022-11-03T06:57:50.208Z,98258.16
2022-11-03T07:00:34.577Z,98263.16
2022-11-03T07:03:13.923Z,98256.00
2022-11-03T07:05:40.893Z,98248.44
2022-11-03T07:08:23.734Z,98254.19
2022-11-03T07:11:01.019Z,98264.16
2022-11-03T07:13:32.494Z,98262.50
2022-11-03T07:15:59.303Z,98261.94
2022-11-03T07:18:33.978Z,98258.91
2022-11-03T07:21:15.822Z,98251.63
2022-11-03T07:23:44.758Z,98246.84
2022-11-03T07:26:13.701Z,98243.06
2022-11-03T07:28:40.233Z,98236.97
2022-11-03T07:31:38.650Z,98233.72
2022-11-03T07:34:12.965Z,98217.50
2022-11-03T07:36:39.475Z,98212.94
2022-11-03T07:39:12.397Z,98211.28
2022-11-03T07:41:38.884Z,98196.56
2022-11-03T07:44:13.876Z,98183.97
2022-11-03T07:46:40.372Z,98171.63
2022-11-03T07:49:29.996Z,98159.16
2022-11-03T07:51:59.434Z,98155.50
2022-11-03T07:54:32.356Z,98165.47
2022-11-03T07:57:06.008Z,98145.22
2022-11-03T07:59:42.599Z,98152.03
2022-11-03T08:02:31.612Z,98156.66
2022-11-03T08:04:59.300Z,98152.34
2022-11-03T08:07:26.067Z,98154.16
2022-11-03T08:09:52.607Z,98149.31
2022-11-03T08:12:19.549Z,98139.16
2022-11-03T08:14:46.340Z,98137.69
2022-11-03T08:17:14.435Z,98127.78
2022-11-03T08:19:41.497Z,98117.88
2022-11-03T08:22:07.986Z,98124.03
2022-11-03T08:24:34.445Z,98117.69
2022-11-03T08:27:00.933Z,98125.75
2022-11-03T08:29:27.393Z,98126.94
2022-11-03T08:31:55.264Z,98124.16
2022-11-03T08:34:21.936Z,98123.28
2022-11-03T08:36:48.393Z,98121.03
2022-11-03T08:39:14.868Z,98114.81
2022-11-03T08:41:41.370Z,98112.56
2022-11-03T08:44:07.956Z,98109.91
2022-11-03T08:46:35.163Z,98099.94
2022-11-03T08:49:01.669Z,98103.09
2022-11-03T08:51:28.159Z,98103.38
2022-11-03T08:53:55.081Z,98106.56
2022-11-03T08:56:22.516Z,98105.09
2022-11-03T08:58:49.734Z,98104.78
2022-11-03T09:01:16.335Z,98106.56
2022-11-03T09:03:43.331Z,98103.06
2022-11-03T09:06:10.438Z,98106.06
2022-11-03T09:11:23.603Z,98095.06
2022-11-03T09:13:50.043Z,98080.94
2022-11-03T09:16:17.059Z,98081.78
2022-11-03T09:18:43.759Z,98079.69
2022-11-03T09:21:10.213Z,98076.94
2022-11-03T09:23:36.676Z,98064.78
2022-11-03T09:26:03.177Z,98056.91
2022-11-03T09:28:29.605Z,98052.22
2022-11-03T09:30:56.089Z,98048.88
2022-11-03T09:33:22.560Z,98047.31
2022-11-03T09:35:49.084Z,98049.13
2022-11-03T09:38:15.525Z,98040.16
2022-11-03T09:40:42.068Z,98034.28
2022-11-03T09:43:09.148Z,98032.47
2022-11-03T09:45:35.900Z,98026.59
2022-11-03T09:48:02.457Z,98013.25
2022-11-03T09:50:28.966Z,98021.84
2022-11-03T09:52:57.379Z,98022.19
2022-11-03T09:55:26.913Z,98013.91
2022-11-03T09:58:00.617Z,97999.44
2022-11-03T10:00:27.333Z,98004.19
2022-11-03T10:02:55.607Z,97993.50
2022-11-03T10:05:31.273Z,97992.38
2022-11-03T10:08:03.203Z,97978.69
2022-11-03T10:10:31.582Z,97973.66
2022-11-03T10:13:00.933Z,97974.81
2022-11-03T10:15:28.034Z,97985.44
2022-11-03T10:17:55.744Z,97982.59
2022-11-03T10:20:23.103Z,97966.78
2022-11-03T10:22:55.100Z,97957.75
2022-11-03T10:25:38.239Z,97947.63
2022-11-03T10:28:22.305Z,97930.81
2022-11-03T10:31:19.879Z,97924.00
2022-11-03T10:33:54.714Z,97901.38
2022-11-03T10:36:30.134Z,97893.53
2022-11-03T10:38:57.588Z,97904.72
2022-11-03T10:41:28.581Z,97891.47
2022-11-03T10:44:19.623Z,97891.78
2022-11-03T10:47:01.533Z,97895.81
2022-11-03T10:49:34.659Z,97896.00
2022-11-03T10:52:29.791Z,97885.00
2022-11-03T10:54:59.248Z,97868.72
2022-11-03T10:57:27.677Z,97864.28
2022-11-03T10:59:55.378Z,97861.13
2022-11-03T11:02:28.511Z,97862.22
2022-11-03T11:05:01.526Z,97852.63
2022-11-03T11:07:39.975Z,97851.81
2022-11-03T11:10:31.290Z,97844.00
2022-11-03T11:13:17.876Z,97835.34
2022-11-03T11:15:46.758Z,97851.78
2022-11-03T11:18:39.150Z,97828.25
2022-11-03T11:21:40.828Z,97821.00
2022-11-03T11:24:11.478Z,97827.41
2022-11-03T11:26:39.556Z,97825.84
2022-11-03T11:29:08.833Z,97804.66
2022-11-03T11:31:43.031Z,97794.09
2022-11-03T11:34:09.596Z,97786.84
2022-11-03T11:36:38.741Z,97794.91
2022-11-03T11:39:24.773Z,97787.50
2022-11-03T11:42:19.347Z,97778.75
2022-11-03T11:44:54.995Z,97767.00
2022-11-03T11:47:49.413Z,97753.03
2022-11-03T11:50:36.405Z,97757.50
2022-11-03T11:53:10.951Z,97760.38
2022-11-03T11:55:50.833Z,97752.81
2022-11-03T11:58:29.216Z,97756.13
2022-11-03T12:01:00.356Z,97748.72
2022-11-03T12:03:34.820Z,97739.22
2022-11-03T12:06:01.954Z,97746.72
2022-11-03T12:08:31.678Z,97745.38
2022-11-03T12:11:04.507Z,97744.09
2022-11-03T12:13:51.089Z,97734.19
2022-11-03T12:16:35.338Z,97718.22
2022-11-03T12:19:40.385Z,97725.41
2022-11-03T12:22:13.078Z,97732.91
2022-11-03T12:24:49.639Z,97740.94
2022-11-03T12:27:20.917Z,97737.56
2022-11-03T12:29:47.426Z,97742.78
2022-11-03T12:32:32.420Z,97719.25
2022-11-03T12:35:00.469Z,97699.06
2022-11-03T12:37:26.985Z,97688.19
2022-11-03T12:39:53.503Z,97697.06
2022-11-03T12:42:20.949Z,97684.38
2022-11-03T12:44:47.490Z,97696.31
2022-11-03T12:47:13.933Z,97678.09
2022-11-03T12:49:40.440Z,97682.53
2022-11-03T12:52:08.622Z,97663.19
2022-11-03T12:54:35.464Z,97664.25
2022-11-03T12:57:02.367Z,97665.38
2022-11-03T12:59:29.210Z,97636.34
2022-11-03T13:01:55.892Z,97632.31
2022-11-03T13:04:22.501Z,97631.31
2022-11-03T13:06:49.059Z,97626.41
2022-11-03T13:09:15.524Z,97615.38
2022-11-03T13:12:00.749Z,97613.59
2022-11-03T13:14:27.365Z,97618.72
2022-11-03T13:16:53.878Z,97610.78
2022-11-03T13:19:20.374Z,97597.53
2022-11-03T13:21:46.837Z,97586.69
2022-11-03T13:24:13.310Z,97589.75
2022-11-03T13:26:39.785Z,97589.06
2022-11-03T13:29:06.252Z,97575.66
2022-11-03T13:31:32.750Z,97572.03
2022-11-03T13:33:59.193Z,97567.09
2022-11-03T13:36:25.702Z,97560.38
2022-11-03T13:38:52.439Z,97561.91
2022-11-03T13:41:18.887Z,97555.25
2022-11-03T13:43:45.376Z,97549.25
2022-11-03T13:46:12.772Z,97543.22
2022-11-03T13:51:25.996Z,97537.97
2022-11-03T13:59:25.874Z,97511.31
2022-11-03T14:07:11.514Z,97494.38
2022-11-03T14:09:37.993Z,97487.56
2022-11-03T14:12:23.110Z,97480.91
2022-11-03T14:14:49.549Z,97468.34
2022-11-03T14:17:15.989Z,97456.69
2022-11-03T14:19:47.350Z,97447.50
2022-11-03T14:22:17.410Z,97444.44
2022-11-03T14:24:44.339Z,97449.66
2022-11-03T14:27:10.854Z,97461.84
2022-11-03T14:29:37.302Z,97448.53
2022-11-03T14:32:03.891Z,97453.28
2022-11-03T14:34:30.543Z,97448.81
2022-11-03T14:36:57.167Z,97447.53
2022-11-03T14:39:23.726Z,97443.91
2022-11-03T14:42:05.310Z,97446.84
2022-11-03T14:44:38.864Z,97434.50
2022-11-03T14:47:08.972Z,97435.31
2022-11-03T14:49:36.543Z,97426.19
2022-11-03T14:52:05.957Z,97427.53
2022-11-03T14:54:32.688Z,97422.25
2022-11-03T14:56:59.387Z,97421.56
2022-11-03T14:59:26.351Z,97421.03
2022-11-03T15:01:54.671Z,97417.41
2022-11-03T15:04:22.382Z,97413.91
2022-11-03T15:06:49.549Z,97398.13
2022-11-03T15:09:16.558Z,97393.50
2022-11-03T15:11:44.585Z,97390.88
2022-11-03T15:14:12.261Z,97404.31
2022-11-03T15:16:40.209Z,97424.94
2022-11-03T15:19:08.099Z,97427.78
2022-11-03T15:21:34.710Z,97432.84
2022-11-03T15:26:47.927Z,97425.03
2022-11-03T15:29:14.538Z,97414.72
2022-11-03T15:31:46.199Z,97405.00
2022-11-03T15:34:15.089Z,97398.28
2022-11-03T15:36:41.563Z,97393.41
2022-11-03T15:39:08.016Z,97387.59
2022-11-03T15:41:34.480Z,97386.94
2022-11-03T15:44:00.907Z,97382.41
2022-11-03T15:46:27.393Z,97379.25
2022-11-03T15:48:56.301Z,97376.47
2022-11-03T15:51:23.031Z,97375.88
2022-11-03T15:53:53.471Z,97367.81
2022-11-03T15:56:23.293Z,97372.56
2022-11-03T15:58:49.754Z,97356.31
2022-11-03T16:01:16.400Z,97358.16
2022-11-03T16:03:42.888Z,97360.41
2022-11-03T16:06:09.336Z,97343.94
2022-11-03T16:08:35.818Z,97353.09
2022-11-03T16:11:02.285Z,97352.69
2022-11-03T16:13:28.768Z,97335.38
2022-11-03T16:15:55.213Z,97329.44
2022-11-03T16:18:22.098Z,97321.94
2022-11-03T16:20:48.549Z,97314.44
2022-11-03T16:23:15.234Z,97299.72
2022-11-03T16:25:41.656Z,97304.16
2022-11-03T16:28:08.518Z,97291.13
2022-11-03T16:30:35.357Z,97288.88
2022-11-03T16:33:02.081Z,97281.13
2022-11-03T16:35:29.565Z,97275.69
2022-11-03T16:37:56.320Z,97280.41
2022-11-03T16:40:23.588Z,97271.69
2022-11-03T16:42:50.098Z,97258.81
2022-11-03T16:45:23.628Z,97258.91
2022-11-03T16:47:50.819Z,97255.28
2022-11-03T16:50:18.469Z,97252.94
2022-11-03T16:52:47.866Z,97250.47
2022-11-03T16:55:15.897Z,97230.94
2022-11-03T16:57:43.006Z,97221.34
2022-11-03T17:00:16.427Z,97219.13
2022-11-03T17:02:44.304Z,97223.69
2022-11-03T17:05:13.029Z,97233.97
2022-11-03T17:07:39.817Z,97232.59
2022-11-03T17:10:07.941Z,97238.44
2022-11-03T17:12:34.502Z,97236.34
2022-11-03T17:15:00.951Z,97237.28
2022-11-03T17:17:27.531Z,97244.91
2022-11-03T17:19:54.043Z,97247.03
2022-11-03T17:22:22.203Z,97232.47
2022-11-03T17:24:49.519Z,97240.09
2022-11-03T17:27:45.832Z,97243.75
2022-11-03T17:30:31.070Z,97239.88
2022-11-03T17:33:06.451Z,97227.66
2022-11-03T17:35:39.796Z,97223.91
2022-11-03T17:38:15.139Z,97220.72
2022-11-03T17:40:45.174Z,97214.19
2022-11-03T17:43:24.489Z,97205.28
2022-11-03T17:45:51.401Z,97206.28
2022-11-03T17:48:18.004Z,97204.47
2022-11-03T17:50:50.415Z,97195.44
2022-11-03T17:53:30.938Z,97188.22
2022-11-03T17:58:47.370Z,97181.69
2022-11-03T18:01:22.831Z,97177.09
2022-11-03T18:03:49.389Z,97177.22
2022-11-03T18:06:19.206Z,97171.84
2022-11-03T18:08:48.266Z,97160.84
2022-11-03T18:11:42.555Z,97156.00
2022-11-03T18:14:09.189Z,97145.50
2022-11-03T18:16:35.714Z,97137.69
2022-11-03T18:19:02.265Z,97133.78
2022-11-03T18:21:30.146Z,97128.56
2022-11-03T18:23:56.779Z,97133.03
2022-11-03T18:26:26.772Z,97134.72
2022-11-03T18:28:54.062Z,97121.38
2022-11-03T18:31:34.050Z,97116.13
2022-11-03T18:34:06.447Z,97119.06
2022-11-03T18:36:36.419Z,97112.00
2022-11-03T18:39:04.479Z,97103.94
2022-11-03T18:41:40.718Z,97103.25
2022-11-03T18:44:19.353Z,97106.84
2022-11-03T18:46:47.146Z,97101.00
2022-11-03T18:49:14.985Z,97089.75
2022-11-03T18:51:49.146Z,97082.84
2022-11-03T18:54:21.518Z,97080.22
2022-11-03T18:56:49.598Z,97081.00
2022-11-03T18:59:25.562Z,97076.19
2022-11-03T19:01:52.971Z,97065.88
2022-11-03T19:04:19.876Z,97071.84
2022-11-03T19:06:49.274Z,97057.38
2022-11-03T19:09:21.073Z,97063.63
2022-11-03T19:11:50.290Z,97063.63
2022-11-03T19:14:28.274Z,97059.63
2022-11-03T19:19:44.649Z,97051.41
2022-11-03T19:22:17.328Z,97044.50
2022-11-03T19:24:45.034Z,97038.22
2022-11-03T19:27:19.907Z,97040.88
2022-11-03T19:29:48.059Z,97024.75
2022-11-03T19:32:24.865Z,97021.47
2022-11-03T19:35:18.407Z,97014.28
2022-11-03T19:37:48.141Z,97019.09
2022-11-03T19:40:20.258Z,97000.28
2022-11-03T19:42:48.598Z,96995.69
2022-11-03T19:45:18.806Z,96994.03
2022-11-03T19:48:22.532Z,96980.16
2022-11-03T19:50:41.730Z,96995.00
2022-11-03T19:53:08.241Z,97002.75
2022-11-03T19:55:40.260Z,97000.66
2022-11-03T19:58:23.458Z,97005.31
2022-11-03T20:00:51.494Z,96993.13
2022-11-03T20:03:18.188Z,97006.03
2022-11-03T20:05:49.605Z,96995.09
2022-11-03T20:08:21.981Z,96992.47
2022-11-03T20:10:48.990Z,97004.66
2022-11-03T20:13:21.762Z,97001.66
2022-11-03T20:15:48.621Z,97008.13
2022-11-03T20:18:15.853Z,96995.09
2022-11-03T20:20:47.994Z,96996.94
2022-11-03T20:23:25.564Z,96982.34
2022-11-03T20:25:52.573Z,96990.66
2022-11-03T20:28:24.838Z,96982.88
2022-11-03T20:30:53.111Z,96976.28
2022-11-03T20:33:22.906Z,96981.03
2022-11-03T20:35:53.398Z,96979.59
2022-11-03T20:38:21.080Z,96979.28
2022-11-03T20:40:51.181Z,96972.19
2022-11-03T20:43:39.606Z,96978.09
2022-11-03T20:46:35.459Z,96974.09
2022-11-03T20:49:01.952Z,96972.91
2022-11-03T20:51:34.831Z,96967.91
2022-11-03T20:54:15.490Z,96961.19
2022-11-03T20:56:42.332Z,96963.53
2022-11-03T20:59:17.420Z,96968.69
2022-11-03T21:01:44.886Z,96973.25
2022-11-03T21:04:15.389Z,96978.63
2022-11-03T21:06:42.902Z,96964.97
2022-11-03T21:09:17.722Z,96970.56
2022-11-03T21:11:46.653Z,96964.38
2022-11-03T21:14:18.290Z,96970.19
2022-11-03T21:17:03.253Z,96961.81
2022-11-03T21:20:01.143Z,96964.44
2022-11-03T21:22:53.813Z,96964.28
2022-11-03T21:25:22.330Z,96973.19
2022-11-03T21:27:51.764Z,96960.78
2022-11-03T21:30:19.137Z,96967.41
2022-11-03T21:32:46.084Z,96969.06
2022-11-03T21:35:17.826Z,96972.97
2022-11-03T21:37:44.288Z,96973.13
2022-11-03T21:40:11.860Z,96967.69
2022-11-03T21:42:56.933Z,96981.56
2022-11-03T21:45:23.464Z,96987.16
2022-11-03T21:48:13.225Z,96976.28
2022-11-03T21:50:40.620Z,96980.72
2022-11-03T21:53:07.468Z,96982.47
2022-11-03T21:55:34.350Z,96994.97
2022-11-03T21:58:02.560Z,96994.00
2022-11-03T22:00:29.307Z,97008.25
2022-11-03T22:02:55.979Z,97014.06
2022-11-03T22:05:22.718Z,97007.59
2022-11-03T22:07:49.182Z,97012.16
2022-11-03T22:10:15.785Z,97014.56
2022-11-03T22:12:42.235Z,97012.09
2022-11-03T22:15:27.905Z,97021.50
2022-11-03T22:18:04.198Z,97026.91
2022-11-03T22:20:49.397Z,97025.50
2022-11-03T22:23:34.649Z,97033.88
2022-11-03T22:26:20.089Z,97030.16
2022-11-03T22:29:06.536Z,97041.25
2022-11-03T22:31:42.003Z,97040.75
2022-11-03T22:34:27.024Z,97045.47
2022-11-03T22:36:53.533Z,97035.19
2022-11-03T22:39:38.732Z,97025.34
2022-11-03T22:42:23.868Z,97020.19
2022-11-03T22:45:09.186Z,97030.00
2022-11-03T22:47:35.632Z,97040.00
2022-11-03T22:50:02.055Z,97039.69
2022-11-03T22:52:28.501Z,97043.84
2022-11-03T22:54:54.942Z,97042.72
2022-11-03T22:57:21.538Z,97042.94
2022-11-03T22:59:47.964Z,97047.09
2022-11-03T23:02:14.470Z,97041.84
2022-11-03T23:04:40.927Z,97031.03
2022-11-03T23:07:07.365Z,97023.88
2022-11-03T23:09:33.817Z,97023.44
2022-11-03T23:12:00.266Z,97019.00
2022-11-03T23:14:46.664Z,97020.41
2022-11-03T23:17:13.155Z,97040.31
2022-11-03T23:19:58.460Z,97049.47
2022-11-03T23:22:24.905Z,97058.06
2022-11-03T23:25:00.479Z,97064.69
2022-11-03T23:27:27.926Z,97069.13
2022-11-03T23:29:54.477Z,97074.13
2022-11-03T23:32:20.924Z,97072.59
2022-11-03T23:34:47.388Z,97073.97
2022-11-03T23:37:14.202Z,97066.66
2022-11-03T23:39:40.737Z,97051.94
2022-11-03T23:42:07.442Z,97056.13
2022-11-03T23:44:53.890Z,97057.75
2022-11-03T23:47:39.095Z,97075.22
2022-11-03T23:50:06.156Z,97071.22
2022-11-03T23:52:32.585Z,97091.06
2022-11-03T23:54:59.017Z,97086.09
2022-11-03T23:57:44.045Z,97105.81
